createdAt,value
2023-05-03T00:00:44.476Z,80.10
2023-05-03T00:03:14.772Z,80.10
2023-05-03T00:05:43.855Z,79.60
2023-05-03T00:08:13.045Z,79.50
2023-05-03T00:10:41.998Z,79.50
2023-05-03T00:13:11.063Z,79.40
2023-05-03T00:15:40.017Z,79.10
2023-05-03T00:18:09.071Z,78.80
2023-05-03T00:20:38.281Z,79.00
2023-05-03T00:23:07.579Z,78.70
2023-05-03T00:25:36.987Z,79.10
2023-05-03T00:28:06.069Z,78.70
2023-05-03T00:30:35.008Z,78.30
2023-05-03T00:33:04.008Z,78.10
2023-05-03T00:35:32.977Z,78.00
2023-05-03T00:38:02.267Z,78.00
2023-05-03T00:40:31.286Z,77.80
2023-05-03T00:43:00.339Z,77.50
2023-05-03T00:45:31.018Z,77.30
2023-05-03T00:48:00.684Z,77.30
2023-05-03T00:50:30.419Z,76.90
2023-05-03T00:53:03.622Z,77.10
2023-05-03T00:55:33.832Z,77.80
2023-05-03T00:58:02.825Z,77.00
2023-05-03T01:00:31.891Z,76.80
2023-05-03T01:03:01.053Z,76.80
2023-05-03T01:05:40.738Z,76.50
2023-05-03T01:08:28.805Z,76.60
2023-05-03T01:11:16.540Z,76.70
2023-05-03T01:14:05.370Z,76.70
2023-05-03T01:16:50.872Z,76.60
2023-05-03T01:19:45.711Z,76.30
2023-05-03T01:22:31.080Z,76.20
2023-05-03T01:25:16.401Z,75.90
2023-05-03T01:27:45.743Z,75.50
2023-05-03T01:30:15.465Z,75.70
2023-05-03T01:33:20.195Z,75.80
2023-05-03T01:36:15.578Z,75.60
2023-05-03T01:38:45.026Z,75.20
2023-05-03T01:41:17.521Z,75.10
2023-05-03T01:43:49.895Z,74.80
2023-05-03T01:46:19.185Z,74.90
2023-05-03T01:48:49.467Z,74.70
2023-05-03T01:51:18.438Z,74.30
2023-05-03T01:53:47.604Z,73.90
2023-05-03T01:56:16.892Z,73.60
2023-05-03T01:58:45.975Z,73.10
2023-05-03T02:01:15.042Z,72.80
2023-05-03T02:03:43.959Z,72.70
2023-05-03T02:06:12.998Z,72.80
2023-05-03T02:08:42.025Z,72.40
2023-05-03T02:11:10.999Z,72.00
2023-05-03T02:13:40.808Z,72.00
2023-05-03T02:16:10.784Z,72.00
2023-05-03T02:18:39.987Z,71.80
2023-05-03T02:21:10.226Z,71.60
2023-05-03T02:23:39.753Z,71.40
2023-05-03T02:26:09.690Z,71.20
2023-05-03T02:28:38.827Z,70.70
2023-05-03T02:31:08.157Z,70.10
2023-05-03T02:33:38.004Z,69.30
2023-05-03T02:36:07.832Z,69.60
2023-05-03T02:38:37.299Z,69.70
2023-05-03T02:41:06.913Z,69.40
2023-05-03T02:43:36.149Z,69.30
2023-05-03T02:46:05.537Z,69.00
2023-05-03T02:48:36.497Z,68.80
2023-05-03T02:51:07.175Z,68.40
2023-05-03T02:53:36.177Z,68.50
2023-05-03T02:56:05.163Z,69.10
2023-05-03T02:58:34.232Z,68.30
2023-05-03T03:01:03.579Z,67.90
2023-05-03T03:03:32.659Z,68.10
2023-05-03T03:06:01.943Z,68.00
2023-05-03T03:08:31.135Z,67.40
2023-05-03T03:11:00.141Z,67.30
2023-05-03T03:13:29.174Z,67.00
2023-05-03T03:15:58.233Z,66.90
2023-05-03T03:18:27.228Z,66.50
2023-05-03T03:20:59.050Z,66.30
2023-05-03T03:23:28.133Z,65.80
2023-05-03T03:26:04.763Z,64.70
2023-05-03T03:28:33.985Z,65.00
2023-05-03T03:31:02.966Z,64.30
2023-05-03T03:33:31.980Z,64.10
2023-05-03T03:36:01.186Z,64.40
2023-05-03T03:38:30.401Z,64.80
2023-05-03T03:40:59.452Z,63.60
2023-05-03T03:43:31.330Z,62.50
2023-05-03T03:46:00.484Z,62.20
2023-05-03T03:48:29.491Z,61.80
2023-05-03T03:51:01.525Z,61.70
2023-05-03T03:53:51.592Z,62.50
2023-05-03T03:57:15.990Z,62.60
2023-05-03T04:00:12.893Z,62.50
2023-05-03T04:02:42.301Z,61.50
2023-05-03T04:05:11.507Z,62.90
2023-05-03T04:07:40.454Z,62.80
2023-05-03T04:10:10.118Z,62.70
2023-05-03T04:12:39.377Z,62.40
2023-05-03T04:15:09.133Z,62.10
2023-05-03T04:17:38.140Z,62.20
2023-05-03T04:20:14.876Z,61.70
2023-05-03T04:22:43.874Z,61.20
2023-05-03T04:25:15.908Z,61.70
2023-05-03T04:27:45.863Z,61.30
2023-05-03T04:30:16.339Z,61.30
2023-05-03T04:32:45.585Z,61.00
2023-05-03T04:35:14.665Z,60.70
2023-05-03T04:37:47.429Z,60.40
2023-05-03T04:40:18.401Z,59.90
2023-05-03T04:42:47.400Z,60.40
2023-05-03T04:45:16.487Z,59.90
2023-05-03T04:47:52.010Z,60.20
2023-05-03T04:50:21.240Z,59.60
2023-05-03T04:52:50.203Z,58.70
2023-05-03T04:55:19.463Z,58.90
2023-05-03T04:57:48.443Z,58.60
2023-05-03T05:00:17.733Z,58.60
2023-05-03T05:02:46.788Z,58.90
2023-05-03T05:05:17.394Z,58.70
2023-05-03T05:07:47.332Z,58.60
2023-05-03T05:10:16.326Z,58.80
2023-05-03T05:12:45.483Z,59.00
2023-05-03T05:15:14.553Z,59.70
2023-05-03T05:17:44.339Z,59.50
2023-05-03T05:20:15.260Z,59.70
2023-05-03T05:22:45.200Z,59.50
2023-05-03T05:25:14.216Z,59.70
2023-05-03T05:27:43.222Z,59.30
2023-05-03T05:30:12.492Z,59.40
2023-05-03T05:32:41.535Z,59.40
2023-05-03T05:35:13.599Z,59.30
2023-05-03T05:37:42.617Z,59.10
2023-05-03T05:40:12.443Z,59.10
2023-05-03T05:42:41.490Z,58.80
2023-05-03T05:45:10.977Z,58.40
2023-05-03T05:47:40.163Z,58.50
2023-05-03T05:50:17.583Z,58.50
2023-05-03T05:52:48.247Z,58.30
2023-05-03T05:55:17.468Z,58.10
2023-05-03T05:57:48.874Z,57.20
2023-05-03T06:00:18.652Z,57.50
2023-05-03T06:02:48.211Z,57.20
2023-05-03T06:05:21.248Z,57.20
2023-05-03T06:07:51.181Z,57.30
2023-05-03T06:10:20.238Z,57.10
2023-05-03T06:12:49.862Z,56.80
2023-05-03T06:15:18.944Z,57.40
2023-05-03T06:17:48.309Z,56.70
2023-05-03T06:20:18.159Z,57.00
2023-05-03T06:22:47.355Z,56.60
2023-05-03T06:25:17.777Z,55.90
2023-05-03T06:27:47.170Z,56.40
2023-05-03T06:30:16.394Z,56.40
2023-05-03T06:32:45.494Z,55.50
2023-05-03T06:35:14.942Z,55.60
2023-05-03T06:37:44.841Z,55.50
2023-05-03T06:40:14.179Z,55.00
2023-05-03T06:42:43.215Z,55.90
2023-05-03T06:45:12.578Z,55.80
2023-05-03T06:47:43.688Z,55.50
2023-05-03T06:50:13.140Z,55.70
2023-05-03T06:52:42.528Z,55.00
2023-05-03T06:55:11.903Z,54.70
2023-05-03T06:57:43.753Z,55.30
2023-05-03T07:00:13.345Z,54.90
2023-05-03T07:02:42.582Z,54.80
2023-05-03T07:05:12.059Z,54.10
2023-05-03T07:07:41.088Z,53.80
2023-05-03T07:10:10.326Z,53.90
2023-05-03T07:12:39.384Z,53.80
2023-05-03T07:15:08.782Z,53.70
2023-05-03T07:17:37.829Z,53.30
2023-05-03T07:20:07.967Z,53.70
2023-05-03T07:22:36.937Z,53.30
2023-05-03T07:25:06.287Z,53.30
2023-05-03T07:27:35.257Z,52.90
2023-05-03T07:30:05.860Z,53.00
2023-05-03T07:32:35.215Z,52.80
2023-05-03T07:35:05.171Z,52.20
2023-05-03T07:37:34.221Z,51.90
2023-05-03T07:40:08.137Z,52.70
2023-05-03T07:42:37.600Z,52.80
2023-05-03T07:45:07.238Z,51.90
2023-05-03T07:47:39.326Z,51.80
2023-05-03T07:50:09.475Z,52.30
2023-05-03T07:52:43.554Z,52.60
2023-05-03T07:55:12.741Z,52.80
2023-05-03T07:57:41.740Z,52.60
2023-05-03T08:00:15.021Z,52.20
2023-05-03T08:02:53.350Z,52.50
2023-05-03T08:05:23.150Z,52.10
2023-05-03T08:07:52.676Z,52.30
2023-05-03T08:10:22.072Z,52.20
2023-05-03T08:12:51.067Z,52.40
2023-05-03T08:15:23.185Z,52.30
2023-05-03T08:17:52.370Z,52.40
2023-05-03T08:20:22.255Z,50.80
2023-05-03T08:22:51.833Z,51.60
2023-05-03T08:25:21.862Z,52.00
2023-05-03T08:27:50.979Z,51.70
2023-05-03T08:30:20.949Z,51.90
2023-05-03T08:32:50.154Z,51.80
2023-05-03T08:35:19.294Z,52.30
2023-05-03T08:37:48.457Z,52.20
2023-05-03T08:40:17.917Z,52.10
2023-05-03T08:42:47.587Z,52.20
2023-05-03T08:45:18.002Z,52.10
2023-05-03T08:47:47.368Z,52.20
2023-05-03T08:50:17.845Z,52.30
2023-05-03T08:52:46.806Z,52.10
2023-05-03T08:55:15.879Z,52.30
2023-05-03T08:57:44.936Z,52.30
2023-05-03T09:00:19.723Z,52.60
2023-05-03T09:02:52.834Z,52.60
2023-05-03T09:05:22.120Z,52.50
2023-05-03T09:08:06.537Z,52.70
2023-05-03T09:10:38.596Z,52.10
2023-05-03T09:13:08.867Z,52.70
2023-05-03T09:15:38.229Z,52.70
2023-05-03T09:18:18.181Z,52.90
2023-05-03T09:20:59.102Z,51.70
2023-05-03T09:23:28.186Z,52.90
2023-05-03T09:26:01.461Z,53.00
2023-05-03T09:28:30.526Z,52.90
2023-05-03T09:31:10.250Z,52.80
2023-05-03T09:33:40.545Z,54.80
2023-05-03T09:36:09.978Z,54.00
2023-05-03T09:38:39.141Z,54.50
2023-05-03T09:41:08.451Z,55.70
2023-05-03T09:43:37.563Z,56.00
2023-05-03T09:46:11.412Z,56.50
2023-05-03T09:48:41.463Z,56.80
2023-05-03T09:51:12.676Z,57.40
2023-05-03T09:53:45.636Z,57.80
2023-05-03T09:56:14.922Z,58.30
2023-05-03T09:58:48.424Z,58.70
2023-05-03T10:01:17.873Z,58.60
2023-05-03T10:03:51.524Z,59.00
2023-05-03T10:06:53.993Z,58.90
2023-05-03T10:09:41.484Z,60.20
2023-05-03T10:12:13.845Z,59.30
2023-05-03T10:14:44.673Z,58.90
2023-05-03T10:17:47.061Z,59.10
2023-05-03T10:20:39.296Z,59.30
2023-05-03T10:23:08.254Z,60.30
2023-05-03T10:25:38.823Z,59.80
2023-05-03T10:28:11.446Z,59.20
2023-05-03T10:30:43.905Z,59.20
2023-05-03T10:33:15.612Z,59.40
2023-05-03T10:35:53.419Z,59.40
2023-05-03T10:38:25.041Z,59.40
2023-05-03T10:40:56.304Z,59.40
2023-05-03T10:43:31.766Z,59.00
2023-05-03T10:46:08.142Z,59.00
2023-05-03T10:48:37.455Z,59.00
2023-05-03T10:51:31.868Z,59.00
2023-05-03T10:54:00.867Z,60.00
2023-05-03T10:56:29.923Z,59.50
2023-05-03T10:58:59.991Z,60.10
2023-05-03T11:01:30.600Z,59.70
2023-05-03T11:04:09.724Z,59.50
2023-05-03T11:06:40.159Z,59.40
2023-05-03T11:09:11.050Z,59.30
2023-05-03T11:11:44.666Z,59.40
2023-05-03T11:14:14.953Z,60.00
2023-05-03T11:16:48.847Z,59.70
2023-05-03T11:19:18.248Z,59.80
2023-05-03T11:21:48.513Z,59.90
2023-05-03T11:24:17.922Z,60.60
2023-05-03T11:26:46.999Z,61.40
2023-05-03T11:29:18.287Z,61.30
2023-05-03T11:31:47.632Z,60.90
2023-05-03T11:34:17.279Z,61.60
2023-05-03T11:36:46.295Z,61.40
2023-05-03T11:39:18.739Z,61.40
2023-05-03T11:42:04.846Z,61.50
2023-05-03T11:44:34.028Z,62.90
2023-05-03T11:47:03.628Z,61.60
2023-05-03T11:49:33.054Z,62.20
2023-05-03T11:52:02.362Z,63.00
2023-05-03T11:54:32.356Z,62.30
2023-05-03T11:57:01.936Z,62.60
2023-05-03T11:59:41.441Z,62.30
2023-05-03T12:02:14.031Z,63.60
2023-05-03T12:04:46.419Z,62.70
2023-05-03T12:07:19.522Z,63.10
2023-05-03T12:10:01.281Z,63.70
2023-05-03T12:12:42.832Z,63.50
2023-05-03T12:15:16.607Z,63.60
2023-05-03T12:17:49.960Z,63.30
2023-05-03T12:22:58.991Z,63.80
2023-05-03T12:25:33.085Z,63.60
2023-05-03T12:30:40.146Z,63.30
2023-05-03T12:33:10.511Z,63.30
2023-05-03T12:35:41.548Z,63.60
2023-05-03T12:38:11.027Z,63.60
2023-05-03T12:40:40.469Z,63.70
2023-05-03T12:43:09.694Z,64.00
2023-05-03T12:45:40.753Z,64.00
2023-05-03T12:48:10.674Z,63.90
2023-05-03T12:50:42.148Z,64.10
2023-05-03T12:53:17.002Z,64.70
2023-05-03T12:55:51.347Z,64.60
2023-05-03T13:05:55.020Z,64.80
2023-05-03T13:08:33.083Z,64.90
2023-05-03T13:11:03.287Z,64.90
2023-05-03T13:13:33.036Z,64.60
2023-05-03T13:16:03.182Z,64.70
